CGF26TE EPKK-EDDH
Flight info
| Callsign | CGF26TE |
|---|---|
| Flight time | N/A |
| Altitude | 38000 |
| Route | OMFOL T738 LASIS DCT BOLBO DCT ESIKA DCT SOGMA M748 RARUP RARUP6A |
| Aircraft | B738/M-SDE2E3FGHIRWXY/LB1 |
Departure
| Time | 2026-04-30 18:03 |
|---|---|
| Airport | Kraków John Paul II International Airport (EPKK) |
Arrival
| Time | N/A |
|---|---|
| Airport | Hamburg Helmut Schmidt Airport (EDDH) |
| Time | Latitude | Longitude | Altitude | Speed | Heading |
|---|---|---|---|---|---|
| 2026-04-30 17:50 | 50.07499 | 19.80493 | 799 ft | 0 kts | 107° |
| 2026-04-30 17:57 | 50.07510 | 19.80411 | 799 ft | 2 kts | 69° |
| 2026-04-30 17:58 | 50.07483 | 19.80384 | 799 ft | 2 kts | 16° |
| 2026-04-30 17:59 | 50.07477 | 19.80381 | 799 ft | 0 kts | 15° |
| 2026-04-30 18:00 | 50.07510 | 19.80393 | 799 ft | 9 kts | 12° |
| 2026-04-30 18:01 | 50.07717 | 19.80381 | 799 ft | 20 kts | 351° |
| 2026-04-30 18:02 | 50.08016 | 19.80221 | 799 ft | 11 kts | 280° |
| 2026-04-30 18:02 | 50.07945 | 19.79657 | 800 ft | 75 kts | 258° |
| 2026-04-30 18:03 | 50.07140 | 19.74235 | 1840 ft | 220 kts | 259° |
| 2026-04-30 18:04 | 50.06136 | 19.66928 | 4815 ft | 235 kts | 261° |
| 2026-04-30 18:05 | 50.05252 | 19.56864 | 8386 ft | 235 kts | 294° |
| 2026-04-30 18:06 | 50.08012 | 19.45999 | 10040 ft | 313 kts | 295° |
| 2026-04-30 18:07 | 50.11432 | 19.31714 | 10982 ft | 386 kts | 294° |
| 2026-04-30 18:08 | 50.14228 | 19.19659 | 12703 ft | 399 kts | 294° |
| 2026-04-30 18:09 | 50.18023 | 19.03181 | 15159 ft | 410 kts | 295° |
| 2026-04-30 18:10 | 50.21883 | 18.86310 | 17619 ft | 415 kts | 295° |
| 2026-04-30 18:11 | 50.25748 | 18.69283 | 20044 ft | 416 kts | 296° |
| 2026-04-30 18:11 | 50.28633 | 18.56480 | 21869 ft | 416 kts | 297° |
| 2026-04-30 18:12 | 50.31489 | 18.43730 | 23789 ft | 412 kts | 298° |
| 2026-04-30 18:13 | 50.33400 | 18.35171 | 24476 ft | 422 kts | 298° |
| 2026-04-30 18:13 | 50.36010 | 18.23439 | 25251 ft | 435 kts | 298° |
| 2026-04-30 18:14 | 50.38327 | 18.12907 | 25951 ft | 445 kts | 298° |
| 2026-04-30 18:15 | 50.41385 | 17.98992 | 26862 ft | 455 kts | 298° |
| 2026-04-30 18:15 | 50.44483 | 17.84762 | 27788 ft | 463 kts | 298° |
| 2026-04-30 18:16 | 50.46797 | 17.75369 | 28432 ft | 459 kts | 304° |
| 2026-04-30 18:16 | 50.49499 | 17.66266 | 29084 ft | 460 kts | 306° |
| 2026-04-30 18:17 | 50.50845 | 17.61768 | 29410 ft | 462 kts | 306° |
| 2026-04-30 18:17 | 50.52199 | 17.57175 | 29740 ft | 464 kts | 306° |
| 2026-04-30 18:17 | 50.54876 | 17.47897 | 30416 ft | 466 kts | 305° |
| 2026-04-30 18:18 | 50.56196 | 17.43261 | 30713 ft | 467 kts | 305° |
| 2026-04-30 18:18 | 50.57521 | 17.38589 | 31000 ft | 467 kts | 305° |
| 2026-04-30 18:18 | 50.58844 | 17.33914 | 31297 ft | 468 kts | 305° |
| 2026-04-30 18:18 | 50.60166 | 17.29236 | 31593 ft | 468 kts | 305° |
| 2026-04-30 18:19 | 50.61488 | 17.24552 | 31888 ft | 468 kts | 304° |
| 2026-04-30 18:19 | 50.62807 | 17.19861 | 32247 ft | 466 kts | 304° |
| 2026-04-30 18:19 | 50.64107 | 17.15232 | 32795 ft | 459 kts | 304° |
| 2026-04-30 18:19 | 50.65390 | 17.10657 | 33319 ft | 453 kts | 304° |
| 2026-04-30 18:20 | 50.66655 | 17.06145 | 33868 ft | 447 kts | 305° |
| 2026-04-30 18:20 | 50.67900 | 17.01702 | 34418 ft | 440 kts | 305° |
| 2026-04-30 18:20 | 50.69124 | 16.97308 | 34861 ft | 435 kts | 304° |
| 2026-04-30 18:20 | 50.70344 | 16.92945 | 35114 ft | 434 kts | 304° |
| 2026-04-30 18:21 | 50.71544 | 16.88581 | 35408 ft | 433 kts | 303° |
| 2026-04-30 18:21 | 50.72724 | 16.84231 | 35690 ft | 431 kts | 303° |
| 2026-04-30 18:21 | 50.73880 | 16.79947 | 35992 ft | 428 kts | 303° |
| 2026-04-30 18:21 | 50.75045 | 16.75621 | 36275 ft | 426 kts | 303° |
| 2026-04-30 18:22 | 50.76201 | 16.71326 | 36570 ft | 424 kts | 302° |
| 2026-04-30 18:22 | 50.78488 | 16.62821 | 37167 ft | 417 kts | 302° |
| 2026-04-30 18:22 | 50.79618 | 16.58614 | 37470 ft | 414 kts | 302° |
| 2026-04-30 18:23 | 50.80738 | 16.54433 | 37761 ft | 411 kts | 302° |
| 2026-04-30 18:23 | 50.81855 | 16.50270 | 37862 ft | 412 kts | 301° |
| 2026-04-30 18:23 | 50.82973 | 16.46094 | 37988 ft | 413 kts | 301° |
| 2026-04-30 18:23 | 50.84097 | 16.41891 | 38031 ft | 416 kts | 301° |
| 2026-04-30 18:24 | 50.87514 | 16.29045 | 38042 ft | 428 kts | 301° |
| 2026-04-30 18:25 | 50.89833 | 16.20266 | 38061 ft | 435 kts | 300° |
| 2026-04-30 18:25 | 50.93432 | 16.07000 | 38198 ft | 435 kts | 308° |
| 2026-04-30 18:26 | 50.98519 | 15.95063 | 38081 ft | 442 kts | 312° |
| 2026-04-30 18:27 | 51.03786 | 15.82753 | 38011 ft | 455 kts | 310° |
| 2026-04-30 18:28 | 51.09465 | 15.70681 | 38000 ft | 455 kts | 316° |
| 2026-04-30 18:28 | 51.15461 | 15.58994 | 38396 ft | 451 kts | 315° |
| 2026-04-30 18:29 | 51.23317 | 15.43172 | 38419 ft | 457 kts | 315° |
| 2026-04-30 18:30 | 51.31175 | 15.27187 | 38413 ft | 459 kts | 315° |
| 2026-04-30 18:31 | 51.37067 | 15.15144 | 38410 ft | 457 kts | 314° |
| 2026-04-30 18:32 | 51.42904 | 15.03143 | 38416 ft | 457 kts | 314° |
| 2026-04-30 18:33 | 51.48762 | 14.91045 | 38417 ft | 458 kts | 314° |
| 2026-04-30 18:33 | 51.54615 | 14.78895 | 38411 ft | 457 kts | 314° |
| 2026-04-30 18:34 | 51.60424 | 14.66729 | 38417 ft | 457 kts | 314° |
| 2026-04-30 18:35 | 51.64300 | 14.58635 | 38428 ft | 456 kts | 314° |
| 2026-04-30 18:35 | 51.68150 | 14.50581 | 38418 ft | 456 kts | 314° |
| 2026-04-30 18:36 | 51.73937 | 14.38388 | 38417 ft | 456 kts | 314° |
| 2026-04-30 18:37 | 51.79708 | 14.26159 | 38416 ft | 456 kts | 314° |
| 2026-04-30 18:37 | 51.83539 | 14.18010 | 38416 ft | 455 kts | 314° |
| 2026-04-30 18:38 | 51.87367 | 14.09844 | 38416 ft | 455 kts | 314° |
| 2026-04-30 18:38 | 51.91161 | 14.01724 | 38415 ft | 454 kts | 313° |
| 2026-04-30 18:39 | 51.94962 | 13.93561 | 38411 ft | 454 kts | 313° |
| 2026-04-30 18:39 | 51.98758 | 13.85385 | 38414 ft | 453 kts | 313° |
| 2026-04-30 18:40 | 52.02549 | 13.77196 | 38409 ft | 453 kts | 313° |
| 2026-04-30 18:40 | 52.06330 | 13.69000 | 38411 ft | 453 kts | 313° |
| 2026-04-30 18:41 | 52.10107 | 13.60785 | 38407 ft | 453 kts | 313° |
| 2026-04-30 18:41 | 52.13882 | 13.52551 | 38401 ft | 453 kts | 313° |
| 2026-04-30 18:42 | 52.17642 | 13.44321 | 38401 ft | 453 kts | 313° |
| 2026-04-30 18:42 | 52.23262 | 13.31948 | 38399 ft | 453 kts | 311° |
| 2026-04-30 18:45 | 52.41895 | 12.90584 | 38041 ft | 456 kts | 311° |
| 2026-04-30 18:45 | 52.43766 | 12.86398 | 37799 ft | 454 kts | 311° |
| 2026-04-30 18:45 | 52.45629 | 12.82220 | 37553 ft | 453 kts | 311° |
| 2026-04-30 18:46 | 52.46862 | 12.79449 | 37394 ft | 453 kts | 311° |
| 2026-04-30 18:46 | 52.48718 | 12.75273 | 37148 ft | 454 kts | 311° |
| 2026-04-30 18:46 | 52.50579 | 12.71081 | 36913 ft | 454 kts | 311° |
| 2026-04-30 18:46 | 52.52439 | 12.66882 | 36677 ft | 455 kts | 311° |
| 2026-04-30 18:47 | 52.54304 | 12.62667 | 36299 ft | 459 kts | 310° |
| 2026-04-30 18:47 | 52.56193 | 12.58393 | 35719 ft | 462 kts | 310° |
| 2026-04-30 18:47 | 52.58082 | 12.54106 | 35174 ft | 462 kts | 310° |
| 2026-04-30 18:47 | 52.59965 | 12.49823 | 34643 ft | 463 kts | 310° |
| 2026-04-30 18:48 | 52.61858 | 12.45514 | 34078 ft | 465 kts | 310° |
| 2026-04-30 18:48 | 52.63757 | 12.41181 | 33574 ft | 466 kts | 310° |
| 2026-04-30 18:48 | 52.65654 | 12.36848 | 33486 ft | 469 kts | 310° |
| 2026-04-30 18:49 | 52.69449 | 12.28157 | 33420 ft | 469 kts | 310° |
| 2026-04-30 18:49 | 52.73240 | 12.19430 | 33421 ft | 467 kts | 309° |
| 2026-04-30 18:49 | 52.75133 | 12.15066 | 33298 ft | 469 kts | 309° |
| 2026-04-30 18:50 | 52.77038 | 12.10676 | 33057 ft | 470 kts | 309° |
| 2026-04-30 18:50 | 52.78938 | 12.06285 | 32826 ft | 469 kts | 309° |
| 2026-04-30 18:50 | 52.80832 | 12.01899 | 32609 ft | 468 kts | 309° |
| 2026-04-30 18:50 | 52.82727 | 11.97504 | 32299 ft | 470 kts | 309° |
| 2026-04-30 18:51 | 52.84626 | 11.93094 | 31703 ft | 471 kts | 309° |
| 2026-04-30 18:51 | 52.86525 | 11.88673 | 31160 ft | 470 kts | 309° |
| 2026-04-30 18:51 | 52.88414 | 11.84265 | 30630 ft | 471 kts | 309° |
| 2026-04-30 18:51 | 52.90316 | 11.79823 | 29945 ft | 473 kts | 309° |
| 2026-04-30 18:52 | 52.92226 | 11.75355 | 29038 ft | 476 kts | 309° |
| 2026-04-30 18:52 | 52.94140 | 11.70867 | 28186 ft | 478 kts | 309° |
| 2026-04-30 18:52 | 52.96053 | 11.66366 | 27338 ft | 474 kts | 309° |
| 2026-04-30 18:52 | 52.97946 | 11.61908 | 26540 ft | 471 kts | 309° |
| 2026-04-30 18:53 | 52.99815 | 11.57502 | 26054 ft | 461 kts | 309° |
| 2026-04-30 18:53 | 53.01644 | 11.53179 | 25539 ft | 453 kts | 309° |
| 2026-04-30 18:53 | 53.03439 | 11.48933 | 25070 ft | 446 kts | 309° |
| 2026-04-30 18:53 | 53.05204 | 11.44752 | 24620 ft | 438 kts | 309° |
| 2026-04-30 18:54 | 53.06926 | 11.40666 | 24479 ft | 423 kts | 309° |
| 2026-04-30 18:54 | 53.08582 | 11.36730 | 24430 ft | 407 kts | 309° |
| 2026-04-30 18:54 | 53.10168 | 11.32935 | 24419 ft | 394 kts | 309° |
| 2026-04-30 18:54 | 53.11754 | 11.29259 | 24423 ft | 389 kts | 315° |
| 2026-04-30 18:55 | 53.13758 | 11.26318 | 24452 ft | 383 kts | 329° |
| 2026-04-30 18:55 | 53.18198 | 11.21303 | 23938 ft | 390 kts | 330° |
| 2026-04-30 18:55 | 53.20434 | 11.18790 | 23494 ft | 385 kts | 330° |
| 2026-04-30 18:56 | 53.24823 | 11.13776 | 22621 ft | 377 kts | 330° |
| 2026-04-30 18:56 | 53.26968 | 11.11297 | 22209 ft | 374 kts | 329° |
| 2026-04-30 18:56 | 53.29097 | 11.08828 | 21790 ft | 371 kts | 329° |
| 2026-04-30 18:57 | 53.33324 | 11.03911 | 20792 ft | 370 kts | 329° |
| 2026-04-30 18:57 | 53.35445 | 11.01439 | 20299 ft | 370 kts | 329° |
| 2026-04-30 18:57 | 53.37528 | 10.99009 | 19819 ft | 369 kts | 329° |
| 2026-04-30 18:58 | 53.41717 | 10.94111 | 18856 ft | 362 kts | 329° |
| 2026-04-30 18:58 | 53.43776 | 10.91698 | 18360 ft | 361 kts | 329° |
| 2026-04-30 18:58 | 53.45841 | 10.89281 | 17824 ft | 361 kts | 329° |
| 2026-04-30 18:59 | 53.49958 | 10.84464 | 16794 ft | 361 kts | 329° |
| 2026-04-30 19:00 | 53.56124 | 10.77226 | 15263 ft | 361 kts | 329° |
| 2026-04-30 19:00 | 53.58192 | 10.74794 | 14476 ft | 364 kts | 329° |
| 2026-04-30 19:00 | 53.61971 | 10.69192 | 12812 ft | 369 kts | 303° |
| 2026-04-30 19:01 | 53.62907 | 10.60892 | 11748 ft | 357 kts | 260° |
| 2026-04-30 19:01 | 53.62282 | 10.56923 | 11423 ft | 344 kts | 253° |
| 2026-04-30 19:02 | 53.60781 | 10.49279 | 9851 ft | 350 kts | 251° |
| 2026-04-30 19:02 | 53.59228 | 10.41483 | 8015 ft | 356 kts | 251° |
| 2026-04-30 19:03 | 53.57755 | 10.33922 | 7532 ft | 322 kts | 251° |
| 2026-04-30 19:03 | 53.56429 | 10.27103 | 7214 ft | 292 kts | 251° |
| 2026-04-30 19:04 | 53.55241 | 10.20958 | 7053 ft | 262 kts | 251° |
| 2026-04-30 19:04 | 53.54122 | 10.15167 | 7017 ft | 260 kts | 251° |
| 2026-04-30 19:05 | 53.52991 | 10.09347 | 7000 ft | 261 kts | 251° |
| 2026-04-30 19:05 | 53.51862 | 10.03590 | 7001 ft | 258 kts | 250° |
| 2026-04-30 19:06 | 53.50732 | 9.97838 | 7010 ft | 261 kts | 251° |
| 2026-04-30 19:06 | 53.50148 | 9.94954 | 7002 ft | 260 kts | 245° |
| 2026-04-30 19:06 | 53.48020 | 9.90110 | 6507 ft | 260 kts | 226° |
| 2026-04-30 19:07 | 53.45688 | 9.85607 | 5893 ft | 250 kts | 226° |
| 2026-04-30 19:07 | 53.44568 | 9.83410 | 5583 ft | 246 kts | 227° |
| 2026-04-30 19:08 | 53.42381 | 9.79047 | 5055 ft | 243 kts | 227° |
| 2026-04-30 19:08 | 53.40198 | 9.74672 | 5017 ft | 244 kts | 227° |
| 2026-04-30 19:08 | 53.39108 | 9.72494 | 5007 ft | 243 kts | 227° |
| 2026-04-30 19:09 | 53.36930 | 9.68144 | 5006 ft | 244 kts | 227° |
| 2026-04-30 19:09 | 53.35840 | 9.65971 | 5010 ft | 244 kts | 227° |
| 2026-04-30 19:09 | 53.34748 | 9.63797 | 5001 ft | 244 kts | 227° |
| 2026-04-30 19:10 | 53.32571 | 9.59466 | 5007 ft | 243 kts | 227° |
| 2026-04-30 19:10 | 53.30436 | 9.55116 | 4995 ft | 245 kts | 237° |
| 2026-04-30 19:11 | 53.29993 | 9.52395 | 5005 ft | 246 kts | 271° |
| 2026-04-30 19:11 | 53.31642 | 9.47622 | 5017 ft | 246 kts | 320° |
| 2026-04-30 19:11 | 53.32604 | 9.45273 | 5000 ft | 248 kts | 284° |
| 2026-04-30 19:12 | 53.32540 | 9.42443 | 5001 ft | 246 kts | 246° |
| 2026-04-30 19:12 | 53.31689 | 9.39997 | 5018 ft | 245 kts | 234° |
| 2026-04-30 19:12 | 53.30751 | 9.37616 | 5012 ft | 245 kts | 234° |
| 2026-04-30 19:13 | 53.28876 | 9.32869 | 4991 ft | 244 kts | 233° |
| 2026-04-30 19:13 | 53.27808 | 9.27668 | 5010 ft | 248 kts | 284° |
| 2026-04-30 19:13 | 53.28683 | 9.25247 | 5000 ft | 246 kts | 323° |
| 2026-04-30 19:14 | 53.30225 | 9.24156 | 5004 ft | 241 kts | 358° |
| 2026-04-30 19:14 | 53.31815 | 9.24679 | 4999 ft | 232 kts | 34° |
| 2026-04-30 19:14 | 53.32879 | 9.26594 | 5012 ft | 225 kts | 65° |
| 2026-04-30 19:14 | 53.33536 | 9.28970 | 5004 ft | 225 kts | 69° |
| 2026-04-30 19:15 | 53.34152 | 9.31350 | 4996 ft | 226 kts | 69° |
| 2026-04-30 19:15 | 53.35400 | 9.36181 | 4998 ft | 226 kts | 69° |
| 2026-04-30 19:15 | 53.36028 | 9.38591 | 4995 ft | 226 kts | 69° |
| 2026-04-30 19:16 | 53.36659 | 9.40994 | 4994 ft | 225 kts | 68° |
| 2026-04-30 19:16 | 53.37290 | 9.43396 | 4995 ft | 225 kts | 68° |
| 2026-04-30 19:16 | 53.38547 | 9.48181 | 5000 ft | 224 kts | 68° |
| 2026-04-30 19:17 | 53.39175 | 9.50572 | 5006 ft | 224 kts | 68° |
| 2026-04-30 19:17 | 53.41009 | 9.54801 | 5011 ft | 226 kts | 51° |
| 2026-04-30 19:17 | 53.42046 | 9.56793 | 5008 ft | 226 kts | 52° |